Aviation Digital Data Service (ADDS)

Output produced by TAFs form (2058 UTC 04 September 2015)
found at http://www.aviationweather.gov/adds/tafs/
 
KPSF 041734Z 0418/0518 06008G14KT P6SM BKN035 
     TEMPO 0418/0419 BKN030 
     FM042200 08006KT P6SM SCT035 
     FM050200 00000KT P6SM FEW040 
     FM050700 00000KT 2SM BR SCT001 
     FM050900 00000KT 1/2SM FG VV001 
     FM051300 VRB04KT P6SM SKC